Time,TemperatureF,DewpointF,PressureIn,WindDirection,WindDirectionDegrees,WindSpeedMPH,WindSpeedGustMPH,Humidity,HourlyPrecipIn,Conditions,Clouds,dailyrainin,SolarRadiationWatts/m^2,SoftwareType,DateUTC
2013-03-12 00:02:00,39.8,24.5,30.09,WNW,297,3.0,3.0,54,0.00,,,0.00,0,Wunderground v.1.15,2013-03-12 07:02:00,
2013-03-12 00:08:00,39.5,24.2,30.09,WNW,299,3.0,4.0,54,0.00,,,0.00,0,Wunderground v.1.15,2013-03-12 07:08:00,
2013-03-12 00:14:00,39.1,24.3,30.09,WNW,288,4.0,6.0,55,0.00,,,0.00,0,Wunderground v.1.15,2013-03-12 07:14:00,
2013-03-12 00:20:00,38.5,24.6,30.09,WNW,300,4.0,4.0,57,0.00,,,0.00,0,Wunderground v.1.15,2013-03-12 07:20:00,
2013-03-12 00:26:00,38.0,24.5,30.08,WNW,302,5.0,5.0,58,0.00,,,0.00,0,Wunderground v.1.15,2013-03-12 07:26:00,
2013-03-12 00:32:00,37.9,24.4,30.08,NW,305,5.0,6.0,58,0.00,,,0.00,0,Wunderground v.1.15,2013-03-12 07:32:00,
2013-03-12 00:38:00,38.2,24.7,30.08,WNW,300,6.0,7.0,58,0.00,,,0.00,0,Wunderground v.1.15,2013-03-12 07:38:00,
2013-03-12 00:44:00,38.3,24.4,30.08,WNW,299,7.0,8.0,57,0.00,,,0.00,0,Wunderground v.1.15,2013-03-12 07:44:00,
2013-03-12 00:50:00,38.7,23.9,30.08,WNW,298,7.0,7.0,55,0.00,,,0.00,0,Wunderground v.1.15,2013-03-12 07:50:00,
2013-03-12 00:56:00,38.8,24.0,30.08,NW,306,7.0,7.0,55,0.00,,,0.00,0,Wunderground v.1.15,2013-03-12 07:56:00,
2013-03-12 01:02:00,38.9,23.7,30.08,WNW,300,7.0,8.0,54,0.00,,,0.00,0,Wunderground v.1.15,2013-03-12 08:02:00,
2013-03-12 01:08:00,39.3,24.0,30.08,WNW,302,6.0,8.0,54,0.00,,,0.00,0,Wunderground v.1.15,2013-03-12 08:08:00,
2013-03-12 01:14:00,39.2,23.5,30.08,WNW,300,6.0,7.0,53,0.00,,,0.00,0,Wunderground v.1.15,2013-03-12 08:14:00,
2013-03-12 01:20:00,38.6,23.4,30.08,WNW,294,5.0,5.0,54,0.00,,,0.00,0,Wunderground v.1.15,2013-03-12 08:20:00,
2013-03-12 01:26:00,37.7,23.4,30.08,West,279,5.0,5.0,56,0.00,,,0.00,0,Wunderground v.1.15,2013-03-12 08:26:00,
2013-03-12 01:32:00,36.6,23.2,30.08,West,277,5.0,7.0,58,0.00,,,0.00,0,Wunderground v.1.15,2013-03-12 08:32:00,
2013-03-12 01:38:00,36.0,23.4,30.08,WNW,282,6.0,7.0,60,0.00,,,0.00,0,Wunderground v.1.15,2013-03-12 08:38:00,
2013-03-12 01:44:00,36.5,23.5,30.08,West,279,5.0,6.0,59,0.00,,,0.00,0,Wunderground v.1.15,2013-03-12 08:44:00,
2013-03-12 01:50:00,36.3,23.7,30.08,West,266,4.0,6.0,60,0.00,,,0.00,0,Wunderground v.1.15,2013-03-12 08:50:00,
2013-03-12 01:56:00,36.3,24.1,30.08,West,277,5.0,6.0,61,0.00,,,0.00,0,Wunderground v.1.15,2013-03-12 08:56:00,
2013-03-12 02:02:00,36.6,23.6,30.08,WNW,290,6.0,7.0,59,0.00,,,0.00,0,Wunderground v.1.15,2013-03-12 09:02:00,
2013-03-12 02:08:00,36.0,23.8,30.08,NW,308,5.0,7.0,61,0.00,,,0.00,0,Wunderground v.1.15,2013-03-12 09:08:00,
2013-03-12 02:14:00,35.8,23.7,30.08,NW,309,5.0,5.0,61,0.00,,,0.00,0,Wunderground v.1.15,2013-03-12 09:14:00,
2013-03-12 02:20:00,36.0,23.4,30.07,NW,306,5.0,6.0,60,0.00,,,0.00,0,Wunderground v.1.15,2013-03-12 09:20:00,
2013-03-12 02:26:00,36.5,23.5,30.07,WNW,303,5.0,6.0,59,0.00,,,0.00,0,Wunderground v.1.15,2013-03-12 09:26:00,
2013-03-12 02:32:00,35.8,23.3,30.07,WNW,297,5.0,5.0,60,0.00,,,0.00,0,Wunderground v.1.15,2013-03-12 09:32:00,
2013-03-12 02:38:00,35.4,23.3,30.07,WNW,302,5.0,6.0,61,0.00,,,0.00,0,Wunderground v.1.15,2013-03-12 09:38:00,
2013-03-12 02:44:00,35.2,23.1,30.06,WNW,302,5.0,5.0,61,0.00,,,0.00,0,Wunderground v.1.15,2013-03-12 09:44:00,
2013-03-12 02:50:00,35.1,23.0,30.06,NW,307,5.0,5.0,61,0.00,,,0.00,0,Wunderground v.1.15,2013-03-12 09:50:00,
2013-03-12 02:56:00,35.0,22.9,30.06,WNW,297,5.0,6.0,61,0.00,,,0.00,0,Wunderground v.1.15,2013-03-12 09:56:00,
2013-03-12 03:02:00,35.1,23.0,30.06,WNW,288,5.0,5.0,61,0.00,,,0.00,0,Wunderground v.1.15,2013-03-12 10:02:00,
2013-03-12 03:08:00,35.3,22.8,30.06,WNW,294,5.0,6.0,60,0.00,,,0.00,0,Wunderground v.1.15,2013-03-12 10:08:00,
2013-03-12 03:14:00,35.8,22.9,30.06,WNW,298,5.0,6.0,59,0.00,,,0.00,0,Wunderground v.1.15,2013-03-12 10:14:00,
2013-03-12 03:20:00,35.7,23.2,30.06,WNW,301,4.0,6.0,60,0.00,,,0.00,0,Wunderground v.1.15,2013-03-12 10:20:00,
2013-03-12 03:26:00,35.4,23.3,30.06,WNW,301,5.0,6.0,61,0.00,,,0.00,0,Wunderground v.1.15,2013-03-12 10:26:00,
2013-03-12 03:32:00,35.2,23.5,30.06,WNW,303,4.0,5.0,62,0.00,,,0.00,0,Wunderground v.1.15,2013-03-12 10:32:00,
2013-03-12 03:38:00,34.9,23.2,30.06,NW,304,4.0,5.0,62,0.00,,,0.00,0,Wunderground v.1.15,2013-03-12 10:38:00,
2013-03-12 03:44:00,34.6,23.3,30.06,NW,309,4.0,5.0,63,0.00,,,0.00,0,Wunderground v.1.15,2013-03-12 10:44:00,
2013-03-12 03:50:00,34.4,23.1,30.06,NW,304,4.0,4.0,63,0.00,,,0.00,0,Wunderground v.1.15,2013-03-12 10:50:00,
2013-03-12 03:56:00,34.1,23.2,30.06,NW,304,3.0,4.0,64,0.00,,,0.00,0,Wunderground v.1.15,2013-03-12 10:56:00,
2013-03-12 04:02:00,34.1,23.6,30.06,NW,305,3.0,4.0,65,0.00,,,0.00,0,Wunderground v.1.15,2013-03-12 11:02:00,
2013-03-12 04:08:00,34.3,23.4,30.06,NW,304,3.0,4.0,64,0.00,,,0.00,0,Wunderground v.1.15,2013-03-12 11:08:00,
2013-03-12 04:14:00,34.1,23.6,30.06,NW,307,3.0,4.0,65,0.00,,,0.00,0,Wunderground v.1.15,2013-03-12 11:14:00,
2013-03-12 04:20:00,33.9,23.4,30.06,NW,309,3.0,3.0,65,0.00,,,0.00,0,Wunderground v.1.15,2013-03-12 11:20:00,
2013-03-12 04:26:00,34.0,23.5,30.06,NW,309,2.0,3.0,65,0.00,,,0.00,0,Wunderground v.1.15,2013-03-12 11:26:00,
2013-03-12 04:32:00,34.2,23.7,30.06,WNW,302,2.0,2.0,65,0.00,,,0.00,0,Wunderground v.1.15,2013-03-12 11:32:00,
2013-03-12 04:38:00,34.0,23.5,30.06,WNW,298,2.0,2.0,65,0.00,,,0.00,0,Wunderground v.1.15,2013-03-12 11:38:00,
2013-03-12 04:44:00,33.5,23.7,30.07,WNW,299,3.0,3.0,67,0.00,,,0.00,0,Wunderground v.1.15,2013-03-12 11:44:00,
2013-03-12 04:50:00,33.3,23.5,30.07,WNW,301,3.0,3.0,67,0.00,,,0.00,0,Wunderground v.1.15,2013-03-12 11:50:00,
2013-03-12 04:56:00,33.3,23.9,30.07,WNW,300,3.0,3.0,68,0.00,,,0.00,0,Wunderground v.1.15,2013-03-12 11:56:00,
2013-03-12 05:02:00,33.1,23.7,30.07,WNW,300,3.0,4.0,68,0.00,,,0.00,0,Wunderground v.1.15,2013-03-12 12:02:00,
2013-03-12 05:08:00,33.1,23.7,30.07,WNW,300,3.0,4.0,68,0.00,,,0.00,0,Wunderground v.1.15,2013-03-12 12:08:00,
2013-03-12 05:14:00,33.0,23.6,30.07,WNW,300,3.0,3.0,68,0.00,,,0.00,0,Wunderground v.1.15,2013-03-12 12:14:00,
2013-03-12 05:20:00,32.9,23.5,30.07,WNW,300,2.0,3.0,68,0.00,,,0.00,0,Wunderground v.1.15,2013-03-12 12:20:00,
2013-03-12 05:26:00,32.2,23.5,30.07,WNW,299,2.0,3.0,70,0.00,,,0.00,0,Wunderground v.1.15,2013-03-12 12:26:00,
2013-03-12 05:32:00,31.9,23.6,30.07,WNW,299,3.0,3.0,71,0.00,,,0.00,0,Wunderground v.1.15,2013-03-12 12:32:00,
2013-03-12 05:38:00,31.9,23.6,30.07,WNW,299,2.0,3.0,71,0.00,,,0.00,0,Wunderground v.1.15,2013-03-12 12:38:00,
2013-03-12 05:44:00,32.1,23.8,30.07,WNW,299,2.0,2.0,71,0.00,,,0.00,0,Wunderground v.1.15,2013-03-12 12:44:00,
2013-03-12 05:50:00,32.3,23.9,30.07,WNW,299,2.0,2.0,71,0.00,,,0.00,0,Wunderground v.1.15,2013-03-12 12:50:00,
2013-03-12 05:56:00,32.1,23.8,30.07,WNW,299,2.0,2.0,71,0.00,,,0.00,0,Wunderground v.1.15,2013-03-12 12:56:00,
2013-03-12 06:02:00,31.9,23.9,30.07,WNW,299,1.0,2.0,72,0.00,,,0.00,0,Wunderground v.1.15,2013-03-12 13:02:00,
2013-03-12 06:08:00,31.8,24.1,30.07,WNW,299,1.0,2.0,73,0.00,,,0.00,0,Wunderground v.1.15,2013-03-12 13:08:00,
2013-03-12 06:14:00,32.1,24.4,30.07,WNW,299,2.0,2.0,73,0.00,,,0.00,0,Wunderground v.1.15,2013-03-12 13:14:00,
2013-03-12 06:20:00,33.5,24.8,30.07,WNW,299,2.0,2.0,70,0.00,,,0.00,0,Wunderground v.1.15,2013-03-12 13:20:00,
2013-03-12 06:26:00,34.3,24.8,30.07,WNW,299,1.0,2.0,68,0.00,,,0.00,0,Wunderground v.1.15,2013-03-12 13:26:00,
2013-03-12 06:32:00,33.5,24.4,30.07,WNW,299,1.0,2.0,69,0.00,,,0.00,0,Wunderground v.1.15,2013-03-12 13:32:00,
2013-03-12 06:38:00,33.2,24.5,30.07,WNW,299,2.0,2.0,70,0.00,,,0.00,7,Wunderground v.1.15,2013-03-12 13:38:00,
2013-03-12 06:44:00,33.3,24.9,30.07,WNW,299,1.0,2.0,71,0.00,,,0.00,11,Wunderground v.1.15,2013-03-12 13:44:00,
2013-03-12 06:50:00,33.6,25.2,30.07,WNW,299,1.0,1.0,71,0.00,,,0.00,14,Wunderground v.1.15,2013-03-12 13:50:00,
2013-03-12 06:56:00,34.4,25.6,30.07,WNW,299,0.0,1.0,70,0.00,,,0.00,18,Wunderground v.1.15,2013-03-12 13:56:00,
2013-03-12 07:02:00,35.7,26.5,30.07,WNW,299,0.0,0.0,69,0.00,,,0.00,32,Wunderground v.1.15,2013-03-12 14:02:00,
2013-03-12 07:08:00,37.1,27.2,30.07,WNW,299,0.0,0.0,67,0.00,,,0.00,49,Wunderground v.1.15,2013-03-12 14:08:00,
2013-03-12 07:14:00,38.5,28.1,30.08,WNW,299,0.0,0.0,66,0.00,,,0.00,67,Wunderground v.1.15,2013-03-12 14:14:00,
2013-03-12 07:20:00,40.0,28.8,30.08,WNW,299,0.0,0.0,64,0.00,,,0.00,91,Wunderground v.1.15,2013-03-12 14:20:00,
2013-03-12 07:26:00,41.6,29.5,30.08,WNW,299,0.0,0.0,62,0.00,,,0.00,118,Wunderground v.1.15,2013-03-12 14:26:00,
2013-03-12 07:32:00,43.5,30.1,30.08,WNW,299,0.0,0.0,59,0.00,,,0.00,146,Wunderground v.1.15,2013-03-12 14:32:00,
2013-03-12 07:38:00,45.5,30.3,30.08,WNW,299,0.0,0.0,55,0.00,,,0.00,179,Wunderground v.1.15,2013-03-12 14:38:00,
2013-03-12 07:44:00,47.5,29.8,30.08,WNW,299,0.0,0.0,50,0.00,,,0.00,204,Wunderground v.1.15,2013-03-12 14:44:00,
2013-03-12 07:50:00,49.3,29.4,30.09,WNW,299,0.0,0.0,46,0.00,,,0.00,234,Wunderground v.1.15,2013-03-12 14:50:00,
2013-03-12 07:56:00,50.8,28.5,30.09,WNW,299,0.0,0.0,42,0.00,,,0.00,253,Wunderground v.1.15,2013-03-12 14:56:00,
2013-03-12 08:02:00,52.1,29.1,30.09,WNW,299,0.0,0.0,41,0.00,,,0.00,281,Wunderground v.1.15,2013-03-12 15:02:00,
2013-03-12 08:08:00,53.4,28.4,30.09,WNW,299,0.0,1.0,38,0.00,,,0.00,302,Wunderground v.1.15,2013-03-12 15:08:00,
2013-03-12 08:14:00,54.5,28.7,30.10,WNW,299,1.0,3.0,37,0.00,,,0.00,330,Wunderground v.1.15,2013-03-12 15:14:00,
2013-03-12 08:20:00,54.8,29.0,30.10,WNW,300,2.0,3.0,37,0.00,,,0.00,353,Wunderground v.1.15,2013-03-12 15:20:00,
2013-03-12 08:26:00,55.0,28.5,30.10,North,9,2.0,3.0,36,0.00,,,0.00,373,Wunderground v.1.15,2013-03-12 15:26:00,
2013-03-12 08:32:00,55.3,28.1,30.10,ENE,71,2.0,3.0,35,0.00,,,0.00,399,Wunderground v.1.15,2013-03-12 15:32:00,
2013-03-12 08:38:00,55.3,29.4,30.11,East,96,2.0,3.0,37,0.00,,,0.00,422,Wunderground v.1.15,2013-03-12 15:38:00,
2013-03-12 08:44:00,55.5,28.3,30.11,East,99,2.0,6.0,35,0.00,,,0.00,441,Wunderground v.1.15,2013-03-12 15:44:00,
2013-03-12 08:50:00,55.6,28.4,30.10,East,87,3.0,5.0,35,0.00,,,0.00,468,Wunderground v.1.15,2013-03-12 15:50:00,
2013-03-12 08:56:00,55.7,27.7,30.11,East,79,3.0,5.0,34,0.00,,,0.00,489,Wunderground v.1.15,2013-03-12 15:56:00,
2013-03-12 09:02:00,56.0,28.0,30.11,ENE,72,2.0,3.0,34,0.00,,,0.00,512,Wunderground v.1.15,2013-03-12 16:02:00,
2013-03-12 09:08:00,56.3,28.3,30.11,East,80,2.0,3.0,34,0.00,,,0.00,531,Wunderground v.1.15,2013-03-12 16:08:00,
2013-03-12 09:14:00,56.5,27.7,30.11,ENE,78,3.0,4.0,33,0.00,,,0.00,552,Wunderground v.1.15,2013-03-12 16:14:00,
2013-03-12 09:20:00,56.8,27.2,30.11,East,82,3.0,3.0,32,0.00,,,0.00,573,Wunderground v.1.15,2013-03-12 16:20:00,
2013-03-12 09:26:00,57.2,27.6,30.11,NE,49,3.0,5.0,32,0.00,,,0.00,592,Wunderground v.1.15,2013-03-12 16:26:00,
2013-03-12 09:32:00,57.7,27.2,30.11,ENE,59,3.0,3.0,31,0.00,,,0.00,613,Wunderground v.1.15,2013-03-12 16:32:00,
2013-03-12 09:38:00,58.3,27.0,30.11,NE,53,3.0,3.0,30,0.00,,,0.00,631,Wunderground v.1.15,2013-03-12 16:38:00,
2013-03-12 09:44:00,58.7,25.6,30.12,East,95,3.0,3.0,28,0.00,,,0.00,650,Wunderground v.1.15,2013-03-12 16:44:00,
2013-03-12 09:50:00,59.4,26.2,30.12,East,98,2.0,2.0,28,0.00,,,0.00,670,Wunderground v.1.15,2013-03-12 16:50:00,
2013-03-12 09:56:00,60.2,26.1,30.12,NE,55,2.0,3.0,27,0.00,,,0.00,689,Wunderground v.1.15,2013-03-12 16:56:00,
2013-03-12 10:02:00,60.5,26.3,30.12,ENE,78,3.0,4.0,27,0.00,,,0.00,705,Wunderground v.1.15,2013-03-12 17:02:00,
2013-03-12 10:08:00,60.8,25.7,30.11,ESE,110,3.0,4.0,26,0.00,,,0.00,722,Wunderground v.1.15,2013-03-12 17:08:00,
2013-03-12 10:14:00,61.4,26.2,30.11,ENE,70,3.0,7.0,26,0.00,,,0.00,740,Wunderground v.1.15,2013-03-12 17:14:00,
2013-03-12 10:20:00,61.4,25.2,30.11,ESE,105,4.0,4.0,25,0.00,,,0.00,754,Wunderground v.1.15,2013-03-12 17:20:00,
2013-03-12 10:26:00,62.2,25.9,30.12,ENE,77,4.0,4.0,25,0.00,,,0.00,770,Wunderground v.1.15,2013-03-12 17:26:00,
2013-03-12 10:32:00,62.6,24.2,30.12,ESE,103,5.0,8.0,23,0.00,,,0.00,786,Wunderground v.1.15,2013-03-12 17:32:00,
2013-03-12 10:38:00,62.9,23.4,30.12,SE,134,6.0,8.0,22,0.00,,,0.00,798,Wunderground v.1.15,2013-03-12 17:38:00,
2013-03-12 10:44:00,63.4,23.8,30.12,ESE,111,5.0,7.0,22,0.00,,,0.00,810,Wunderground v.1.15,2013-03-12 17:44:00,
2013-03-12 10:50:00,63.6,24.0,30.12,ESE,118,5.0,9.0,22,0.00,,,0.00,824,Wunderground v.1.15,2013-03-12 17:50:00,
2013-03-12 10:56:00,63.6,25.1,30.12,East,84,4.0,9.0,23,0.00,,,0.00,837,Wunderground v.1.15,2013-03-12 17:56:00,
2013-03-12 11:02:00,64.0,25.4,30.12,ESE,112,3.0,7.0,23,0.00,,,0.00,849,Wunderground v.1.15,2013-03-12 18:02:00,
2013-03-12 11:08:00,64.9,24.0,30.11,ESE,109,4.0,7.0,21,0.00,,,0.00,860,Wunderground v.1.15,2013-03-12 18:08:00,
2013-03-12 11:14:00,65.1,23.0,30.11,SE,132,5.0,7.0,20,0.00,,,0.00,870,Wunderground v.1.15,2013-03-12 18:14:00,
2013-03-12 11:20:00,65.2,24.2,30.11,East,92,5.0,7.0,21,0.00,,,0.00,881,Wunderground v.1.15,2013-03-12 18:20:00,
2013-03-12 11:26:00,65.2,23.1,30.11,NNE,29,5.0,7.0,20,0.00,,,0.00,889,Wunderground v.1.15,2013-03-12 18:26:00,
2013-03-12 11:32:00,65.2,23.1,30.11,ENE,66,4.0,5.0,20,0.00,,,0.00,896,Wunderground v.1.15,2013-03-12 18:32:00,
2013-03-12 11:38:00,66.3,25.2,30.11,East,86,3.0,8.0,21,0.00,,,0.00,904,Wunderground v.1.15,2013-03-12 18:38:00,
2013-03-12 11:44:00,66.6,20.4,30.11,ENE,75,5.0,10.0,17,0.00,,,0.00,912,Wunderground v.1.15,2013-03-12 18:44:00,
2013-03-12 11:50:00,66.4,21.6,30.11,ENE,58,5.0,5.0,18,0.00,,,0.00,916,Wunderground v.1.15,2013-03-12 18:50:00,
2013-03-12 11:56:00,66.3,21.5,30.10,NE,54,5.0,7.0,18,0.00,,,0.00,923,Wunderground v.1.15,2013-03-12 18:56:00,
2013-03-12 12:02:00,66.5,21.6,30.10,SE,128,5.0,7.0,18,0.00,,,0.00,925,Wunderground v.1.15,2013-03-12 19:02:00,
2013-03-12 12:08:00,66.9,20.6,30.10,ENE,69,5.0,7.0,17,0.00,,,0.00,930,Wunderground v.1.15,2013-03-12 19:08:00,
2013-03-12 12:14:00,67.0,23.3,30.10,NNE,32,4.0,5.0,19,0.00,,,0.00,932,Wunderground v.1.15,2013-03-12 19:14:00,
2013-03-12 12:20:00,67.2,20.9,30.09,East,89,4.0,4.0,17,0.00,,,0.00,937,Wunderground v.1.15,2013-03-12 19:20:00,
2013-03-12 12:26:00,67.5,19.7,30.09,ENE,74,5.0,7.0,16,0.00,,,0.00,937,Wunderground v.1.15,2013-03-12 19:26:00,
2013-03-12 12:32:00,67.7,22.6,30.09,ESE,107,5.0,5.0,18,0.00,,,0.00,935,Wunderground v.1.15,2013-03-12 19:32:00,
2013-03-12 12:38:00,68.4,21.8,30.09,ENE,76,4.0,8.0,17,0.00,,,0.00,937,Wunderground v.1.15,2013-03-12 19:38:00,
2013-03-12 12:44:00,68.7,20.6,30.09,NE,49,5.0,9.0,16,0.00,,,0.00,935,Wunderground v.1.15,2013-03-12 19:44:00,
2013-03-12 12:50:00,68.5,21.9,30.08,NNE,19,6.0,6.0,17,0.00,,,0.00,933,Wunderground v.1.15,2013-03-12 19:50:00,
2013-03-12 12:56:00,68.7,20.6,30.08,North,5,6.0,6.0,16,0.00,,,0.00,933,Wunderground v.1.15,2013-03-12 19:56:00,
2013-03-12 13:02:00,69.2,19.5,30.08,NE,36,3.0,4.0,15,0.00,,,0.00,930,Wunderground v.1.15,2013-03-12 20:02:00,
2013-03-12 13:08:00,69.7,19.9,30.08,ENE,65,3.0,9.0,15,0.00,,,0.00,928,Wunderground v.1.15,2013-03-12 20:08:00,
2013-03-12 13:14:00,69.9,20.1,30.07,ENE,75,3.0,3.0,15,0.00,,,0.00,923,Wunderground v.1.15,2013-03-12 20:14:00,
2013-03-12 13:20:00,69.7,19.9,30.07,NE,48,4.0,7.0,15,0.00,,,0.00,919,Wunderground v.1.15,2013-03-12 20:20:00,
2013-03-12 13:26:00,69.7,18.3,30.07,ENE,58,4.0,7.0,14,0.00,,,0.00,914,Wunderground v.1.15,2013-03-12 20:26:00,
2013-03-12 13:32:00,70.1,18.6,30.06,NE,36,4.0,4.0,14,0.00,,,0.00,905,Wunderground v.1.15,2013-03-12 20:32:00,
2013-03-12 13:38:00,70.4,18.9,30.06,NE,41,3.0,4.0,14,0.00,,,0.00,898,Wunderground v.1.15,2013-03-12 20:38:00,
2013-03-12 13:44:00,70.8,19.2,30.06,NE,34,3.0,4.0,14,0.00,,,0.00,891,Wunderground v.1.15,2013-03-12 20:44:00,
2013-03-12 13:50:00,70.6,19.0,30.06,NNE,24,3.0,3.0,14,0.00,,,0.00,881,Wunderground v.1.15,2013-03-12 20:50:00,
2013-03-12 13:56:00,70.7,19.1,30.06,ENE,71,2.0,4.0,14,0.00,,,0.00,872,Wunderground v.1.15,2013-03-12 20:56:00,
2013-03-12 14:02:00,70.7,17.4,30.06,ENE,71,4.0,5.0,13,0.00,,,0.00,861,Wunderground v.1.15,2013-03-12 21:02:00,
2013-03-12 14:08:00,70.8,13.6,30.06,North,11,5.0,8.0,11,0.00,,,0.00,853,Wunderground v.1.15,2013-03-12 21:08:00,
2013-03-12 14:14:00,71.2,13.9,30.05,NNE,15,4.0,4.0,11,0.00,,,0.00,840,Wunderground v.1.15,2013-03-12 21:14:00,
2013-03-12 14:20:00,72.0,12.4,30.05,NE,52,2.0,3.0,10,0.00,,,0.00,830,Wunderground v.1.15,2013-03-12 21:20:00,
2013-03-12 14:26:00,72.4,14.9,30.05,NNE,22,2.0,3.0,11,0.00,,,0.00,817,Wunderground v.1.15,2013-03-12 21:26:00,
2013-03-12 14:32:00,72.0,14.6,30.04,NE,52,3.0,7.0,11,0.00,,,0.00,805,Wunderground v.1.15,2013-03-12 21:32:00,
2013-03-12 14:38:00,71.9,16.5,30.04,WSW,239,4.0,7.0,12,0.00,,,0.00,793,Wunderground v.1.15,2013-03-12 21:38:00,
2013-03-12 14:44:00,72.3,14.8,30.04,NNE,22,2.0,7.0,11,0.00,,,0.00,777,Wunderground v.1.15,2013-03-12 21:44:00,
2013-03-12 14:50:00,71.8,14.4,30.04,NE,37,5.0,5.0,11,0.00,,,0.00,761,Wunderground v.1.15,2013-03-12 21:50:00,
2013-03-12 14:56:00,71.7,16.3,30.04,ENE,65,5.0,6.0,12,0.00,,,0.00,745,Wunderground v.1.15,2013-03-12 21:56:00,
2013-03-12 15:02:00,72.0,16.6,30.03,SE,128,4.0,4.0,12,0.00,,,0.00,729,Wunderground v.1.15,2013-03-12 22:02:00,
2013-03-12 15:08:00,72.1,16.6,30.03,East,79,4.0,6.0,12,0.00,,,0.00,714,Wunderground v.1.15,2013-03-12 22:08:00,
2013-03-12 15:14:00,72.5,16.9,30.03,East,79,2.0,3.0,12,0.00,,,0.00,696,Wunderground v.1.15,2013-03-12 22:14:00,
2013-03-12 15:20:00,73.2,15.5,30.03,WNW,297,1.0,3.0,11,0.00,,,0.00,680,Wunderground v.1.15,2013-03-12 22:20:00,
2013-03-12 15:26:00,73.2,17.5,30.03,SSW,201,2.0,4.0,12,0.00,,,0.00,661,Wunderground v.1.15,2013-03-12 22:26:00,
2013-03-12 15:32:00,73.7,15.9,30.02,SSW,202,2.0,3.0,11,0.00,,,0.00,643,Wunderground v.1.15,2013-03-12 22:32:00,
2013-03-12 15:38:00,73.9,18.0,30.02,NE,36,3.0,3.0,12,0.00,,,0.00,617,Wunderground v.1.15,2013-03-12 22:38:00,
2013-03-12 15:44:00,73.4,17.6,30.02,ENE,67,5.0,5.0,12,0.00,,,0.00,601,Wunderground v.1.15,2013-03-12 22:44:00,
2013-03-12 15:50:00,73.2,17.5,30.02,NNE,17,4.0,4.0,12,0.00,,,0.00,577,Wunderground v.1.15,2013-03-12 22:50:00,
2013-03-12 15:56:00,73.0,17.3,30.02,NE,38,4.0,7.0,12,0.00,,,0.00,561,Wunderground v.1.15,2013-03-12 22:56:00,
2013-03-12 16:02:00,73.1,17.4,30.02,NNE,26,4.0,7.0,12,0.00,,,0.00,540,Wunderground v.1.15,2013-03-12 23:02:00,
2013-03-12 16:08:00,73.4,17.6,30.01,West,271,4.0,7.0,12,0.00,,,0.00,515,Wunderground v.1.15,2013-03-12 23:08:00,
2013-03-12 16:14:00,73.7,19.8,30.02,SE,141,3.0,6.0,13,0.00,,,0.00,494,Wunderground v.1.15,2013-03-12 23:14:00,
2013-03-12 16:20:00,73.7,19.8,30.02,East,101,3.0,3.0,13,0.00,,,0.00,471,Wunderground v.1.15,2013-03-12 23:20:00,
2013-03-12 16:26:00,73.3,19.4,30.02,ENE,67,3.0,3.0,13,0.00,,,0.00,450,Wunderground v.1.15,2013-03-12 23:26:00,
2013-03-12 16:32:00,72.9,19.1,30.02,ENE,74,3.0,5.0,13,0.00,,,0.00,427,Wunderground v.1.15,2013-03-12 23:32:00,
2013-03-12 16:38:00,72.8,19.0,30.02,NNE,25,3.0,6.0,13,0.00,,,0.00,404,Wunderground v.1.15,2013-03-12 23:38:00,
2013-03-12 16:44:00,72.7,17.1,30.02,NE,44,3.0,7.0,12,0.00,,,0.00,380,Wunderground v.1.15,2013-03-12 23:44:00,
2013-03-12 16:50:00,72.6,17.0,30.02,NNE,32,4.0,4.0,12,0.00,,,0.00,357,Wunderground v.1.15,2013-03-12 23:50:00,
2013-03-12 16:56:00,72.6,17.0,30.02,ENE,61,5.0,6.0,12,0.00,,,0.00,334,Wunderground v.1.15,2013-03-12 23:56:00,
2013-03-12 17:02:00,72.9,19.1,30.02,ENE,61,3.0,3.0,13,0.00,,,0.00,308,Wunderground v.1.15,2013-03-13 00:02:00,
2013-03-12 17:08:00,73.1,15.4,30.02,NE,39,1.0,3.0,11,0.00,,,0.00,283,Wunderground v.1.15,2013-03-13 00:08:00,
2013-03-12 17:14:00,72.9,17.3,30.02,NE,39,3.0,7.0,12,0.00,,,0.00,255,Wunderground v.1.15,2013-03-13 00:14:00,
2013-03-12 17:20:00,72.7,17.1,30.02,ENE,74,3.0,4.0,12,0.00,,,0.00,223,Wunderground v.1.15,2013-03-13 00:20:00,
2013-03-12 17:26:00,72.5,16.9,30.02,East,84,3.0,4.0,12,0.00,,,0.00,193,Wunderground v.1.15,2013-03-13 00:26:00,
2013-03-12 17:32:00,72.3,14.8,30.02,East,82,3.0,5.0,11,0.00,,,0.00,162,Wunderground v.1.15,2013-03-13 00:32:00,
2013-03-12 17:38:00,72.1,14.6,30.02,East,84,3.0,5.0,11,0.00,,,0.00,132,Wunderground v.1.15,2013-03-13 00:38:00,
2013-03-12 17:44:00,71.9,14.5,30.02,ENE,73,2.0,2.0,11,0.00,,,0.00,104,Wunderground v.1.15,2013-03-13 00:44:00,
2013-03-12 17:50:00,71.7,14.3,30.02,ENE,73,1.0,1.0,11,0.00,,,0.00,79,Wunderground v.1.15,2013-03-13 00:50:00,
2013-03-12 17:56:00,71.5,14.2,30.03,ENE,67,1.0,2.0,11,0.00,,,0.00,56,Wunderground v.1.15,2013-03-13 00:56:00,
2013-03-12 18:02:00,71.0,13.8,30.03,ENE,63,2.0,2.0,11,0.00,,,0.00,37,Wunderground v.1.15,2013-03-13 01:02:00,
2013-03-12 18:08:00,70.4,13.3,30.03,ENE,71,2.0,2.0,11,0.00,,,0.00,16,Wunderground v.1.15,2013-03-13 01:08:00,
2013-03-12 18:14:00,69.6,14.7,30.03,East,79,1.0,3.0,12,0.00,,,0.00,12,Wunderground v.1.15,2013-03-13 01:14:00,
2013-03-12 18:20:00,68.8,15.9,30.03,East,79,1.0,1.0,13,0.00,,,0.00,9,Wunderground v.1.15,2013-03-13 01:20:00,
2013-03-12 18:26:00,68.0,15.3,30.03,East,79,0.0,1.0,13,0.00,,,0.00,7,Wunderground v.1.15,2013-03-13 01:26:00,
2013-03-12 18:32:00,67.1,16.3,30.04,East,79,0.0,0.0,14,0.00,,,0.00,0,Wunderground v.1.15,2013-03-13 01:32:00,
2013-03-12 18:38:00,66.2,15.5,30.04,East,79,0.0,0.0,14,0.00,,,0.00,0,Wunderground v.1.15,2013-03-13 01:38:00,
2013-03-12 18:44:00,65.2,16.3,30.04,East,79,0.0,0.0,15,0.00,,,0.00,0,Wunderground v.1.15,2013-03-13 01:44:00,
2013-03-12 18:50:00,64.1,15.4,30.04,East,79,0.0,0.0,15,0.00,,,0.00,0,Wunderground v.1.15,2013-03-13 01:50:00,
2013-03-12 18:56:00,63.1,16.1,30.04,East,79,0.0,1.0,16,0.00,,,0.00,0,Wunderground v.1.15,2013-03-13 01:56:00,
2013-03-12 19:02:00,61.8,16.5,30.04,East,79,0.0,0.0,17,0.00,,,0.00,0,Wunderground v.1.15,2013-03-13 02:02:00,
2013-03-12 19:08:00,60.2,16.5,30.04,East,79,0.0,0.0,18,0.00,,,0.00,0,Wunderground v.1.15,2013-03-13 02:08:00,
2013-03-12 19:14:00,59.2,19.2,30.05,East,79,0.0,2.0,21,0.00,,,0.00,0,Wunderground v.1.15,2013-03-13 02:14:00,
2013-03-12 19:23:00,56.8,21.3,30.05,East,79,0.0,2.0,25,0.00,,,0.00,0,Wunderground v.1.15,2013-03-13 02:23:00,
2013-03-12 19:28:00,55.3,21.8,30.05,ENE,78,0.0,2.0,27,0.00,,,0.00,0,Wunderground v.1.15,2013-03-13 02:28:00,
2013-03-12 19:34:00,54.0,22.4,30.05,North,355,1.0,2.0,29,0.00,,,0.00,0,Wunderground v.1.15,2013-03-13 02:34:00,
2013-03-12 19:40:00,53.3,22.6,30.05,NNW,343,2.0,2.0,30,0.00,,,0.00,0,Wunderground v.1.15,2013-03-13 02:40:00,
2013-03-12 19:46:00,52.7,22.9,30.06,NW,313,3.0,4.0,31,0.00,,,0.00,0,Wunderground v.1.15,2013-03-13 02:46:00,
2013-03-12 19:52:00,52.2,23.2,30.06,SSW,211,3.0,3.0,32,0.00,,,0.00,0,Wunderground v.1.15,2013-03-13 02:52:00,
2013-03-12 19:58:00,52.9,22.3,30.06,WNW,294,2.0,4.0,30,0.00,,,0.00,0,Wunderground v.1.15,2013-03-13 02:58:00,
2013-03-12 20:04:00,52.3,23.3,30.06,WNW,298,3.0,3.0,32,0.00,,,0.00,0,Wunderground v.1.15,2013-03-13 03:04:00,
2013-03-12 20:10:00,51.6,22.7,30.06,NW,308,3.0,3.0,32,0.00,,,0.00,0,Wunderground v.1.15,2013-03-13 03:10:00,
2013-03-12 20:16:00,51.6,22.7,30.07,NW,310,2.0,3.0,32,0.00,,,0.00,0,Wunderground v.1.15,2013-03-13 03:16:00,
2013-03-12 20:22:00,50.6,22.5,30.07,NW,307,2.0,5.0,33,0.00,,,0.00,0,Wunderground v.1.15,2013-03-13 03:22:00,
2013-03-12 20:28:00,50.4,21.6,30.07,NW,314,3.0,5.0,32,0.00,,,0.00,0,Wunderground v.1.15,2013-03-13 03:28:00,
2013-03-12 20:34:00,51.2,21.6,30.07,NW,308,4.0,4.0,31,0.00,,,0.00,0,Wunderground v.1.15,2013-03-13 03:34:00,
2013-03-12 20:40:00,51.4,22.5,30.07,NW,304,3.0,4.0,32,0.00,,,0.00,0,Wunderground v.1.15,2013-03-13 03:40:00,
2013-03-12 20:46:00,50.5,22.4,30.08,WNW,302,3.0,4.0,33,0.00,,,0.00,0,Wunderground v.1.15,2013-03-13 03:46:00,
2013-03-12 20:52:00,49.8,22.5,30.08,WNW,298,3.0,4.0,34,0.00,,,0.00,0,Wunderground v.1.15,2013-03-13 03:52:00,
2013-03-12 20:58:00,49.8,22.5,30.08,NW,306,3.0,4.0,34,0.00,,,0.00,0,Wunderground v.1.15,2013-03-13 03:58:00,
2013-03-12 21:00:00,49.9,22.6,30.08,WNW,298,3.0,3.0,34,0.00,,,0.00,0,Wunderground v.1.15,2013-03-13 04:00:00,
2013-03-12 21:02:00,49.9,22.6,30.08,WNW,301,3.0,3.0,34,0.00,,,0.00,0,Wunderground v.1.15,2013-03-13 04:02:00,
2013-03-12 21:04:00,49.9,22.6,30.08,NW,304,3.0,4.0,34,0.00,,,0.00,0,Wunderground v.1.15,2013-03-13 04:04:00,
2013-03-12 21:10:00,49.8,22.5,30.08,NW,305,4.0,4.0,34,0.00,,,0.00,0,Wunderground v.1.15,2013-03-13 04:10:00,
2013-03-12 21:17:00,50.0,21.3,30.09,NW,313,5.0,7.0,32,0.00,,,0.00,0,Wunderground v.1.15,2013-03-13 04:17:00,
2013-03-12 21:22:00,50.8,21.2,30.08,WNW,302,5.0,5.0,31,0.00,,,0.00,0,Wunderground v.1.15,2013-03-13 04:22:00,
2013-03-12 21:28:00,51.8,20.5,30.09,NW,306,5.0,7.0,29,0.00,,,0.00,0,Wunderground v.1.15,2013-03-13 04:28:00,
2013-03-12 21:34:00,53.1,20.0,30.09,NW,304,5.0,6.0,27,0.00,,,0.00,0,Wunderground v.1.15,2013-03-13 04:34:00,
2013-03-12 21:40:00,53.9,19.8,30.09,WNW,299,5.0,6.0,26,0.00,,,0.00,0,Wunderground v.1.15,2013-03-13 04:40:00,
2013-03-12 21:46:00,53.2,20.0,30.09,NW,304,5.0,6.0,27,0.00,,,0.00,0,Wunderground v.1.15,2013-03-13 04:46:00,
2013-03-12 21:52:00,53.6,19.5,30.09,NW,305,4.0,5.0,26,0.00,,,0.00,0,Wunderground v.1.15,2013-03-13 04:52:00,
2013-03-12 21:58:00,52.4,20.2,30.09,WNW,300,4.0,7.0,28,0.00,,,0.00,0,Wunderground v.1.15,2013-03-13 04:58:00,
2013-03-12 22:04:00,51.5,20.2,30.10,WNW,298,4.0,5.0,29,0.00,,,0.00,0,Wunderground v.1.15,2013-03-13 05:04:00,
2013-03-12 22:10:00,51.4,20.2,30.10,NW,304,4.0,5.0,29,0.00,,,0.00,0,Wunderground v.1.15,2013-03-13 05:10:00,
2013-03-12 22:16:00,51.3,20.9,30.10,NW,306,4.0,5.0,30,0.00,,,0.00,0,Wunderground v.1.15,2013-03-13 05:16:00,
2013-03-12 22:22:00,50.6,21.0,30.10,WNW,294,4.0,4.0,31,0.00,,,0.00,0,Wunderground v.1.15,2013-03-13 05:22:00,
2013-03-12 22:28:00,48.8,22.3,30.10,WNW,291,3.0,4.0,35,0.00,,,0.00,0,Wunderground v.1.15,2013-03-13 05:28:00,
2013-03-12 22:34:00,47.0,22.7,30.11,West,278,3.0,4.0,38,0.00,,,0.00,0,Wunderground v.1.15,2013-03-13 05:34:00,
2013-03-12 22:40:00,46.7,22.4,30.11,WNW,283,3.0,3.0,38,0.00,,,0.00,0,Wunderground v.1.15,2013-03-13 05:40:00,
2013-03-12 22:46:00,46.7,23.0,30.11,WNW,297,3.0,4.0,39,0.00,,,0.00,0,Wunderground v.1.15,2013-03-13 05:46:00,
2013-03-12 22:52:00,46.7,22.4,30.11,WNW,297,2.0,3.0,38,0.00,,,0.00,0,Wunderground v.1.15,2013-03-13 05:52:00,
2013-03-12 22:58:00,46.3,22.7,30.11,WNW,297,0.0,3.0,39,0.00,,,0.00,0,Wunderground v.1.15,2013-03-13 05:58:00,
2013-03-12 23:04:00,45.7,22.7,30.11,WNW,297,0.0,1.0,40,0.00,,,0.00,0,Wunderground v.1.15,2013-03-13 06:04:00,
2013-03-12 23:10:00,45.2,21.7,30.11,NW,313,1.0,2.0,39,0.00,,,0.00,0,Wunderground v.1.15,2013-03-13 06:10:00,
2013-03-12 23:16:00,45.7,22.7,30.11,NW,306,2.0,3.0,40,0.00,,,0.00,0,Wunderground v.1.15,2013-03-13 06:16:00,
2013-03-12 23:22:00,44.7,23.0,30.11,NW,306,2.0,2.0,42,0.00,,,0.00,0,Wunderground v.1.15,2013-03-13 06:22:00,
2013-03-12 23:28:00,44.3,23.2,30.11,NW,306,2.0,3.0,43,0.00,,,0.00,0,Wunderground v.1.15,2013-03-13 06:28:00,
2013-03-12 23:34:00,44.0,22.9,30.12,NW,306,2.0,3.0,43,0.00,,,0.00,0,Wunderground v.1.15,2013-03-13 06:34:00,
2013-03-12 23:40:00,43.9,22.8,30.11,NW,306,2.0,2.0,43,0.00,,,0.00,0,Wunderground v.1.15,2013-03-13 06:40:00,
2013-03-12 23:46:00,44.1,23.6,30.12,NW,306,2.0,3.0,44,0.00,,,0.00,0,Wunderground v.1.15,2013-03-13 06:46:00,
2013-03-12 23:52:00,43.7,23.7,30.12,NW,306,2.0,3.0,45,0.00,,,0.00,0,Wunderground v.1.15,2013-03-13 06:52:00,
2013-03-12 23:58:00,43.1,23.7,30.12,NW,306,1.0,3.0,46,0.00,,,0.00,0,Wunderground v.1.15,2013-03-13 06:58:00,